createdAt,value
2018-01-24T12:32:16.217Z,16.00
2018-01-24T12:34:43.712Z,16.00
2018-01-24T12:37:11.227Z,16.00
2018-01-24T12:39:43.878Z,16.10
2018-01-24T12:42:11.375Z,16.10
2018-01-24T12:44:38.882Z,16.10
2018-01-24T12:47:06.442Z,16.20
2018-01-24T12:49:33.953Z,16.20
2018-01-24T12:54:54.631Z,16.30
2018-01-24T12:57:22.158Z,16.30
2018-01-24T12:59:49.665Z,16.30
2018-01-24T13:02:17.178Z,16.40
2018-01-24T13:04:47.381Z,16.40
2018-01-24T14:05:56.472Z,14.30
2018-01-24T14:08:26.485Z,13.10
2018-01-24T14:10:56.435Z,12.40
2018-01-24T14:16:17.988Z,11.60
2018-01-24T14:18:50.528Z,11.40
2018-01-24T14:21:18.470Z,11.20
2018-01-24T14:23:46.100Z,11.20
2018-01-24T14:26:13.764Z,11.10
2018-01-24T14:28:41.439Z,11.00
2018-01-24T14:31:09.108Z,11.00
2018-01-24T14:33:36.899Z,11.00
2018-01-24T14:36:04.585Z,11.00
2018-01-24T14:38:32.359Z,11.00
2018-01-24T14:41:00.452Z,11.00
2018-01-24T14:43:28.032Z,11.00
2018-01-24T14:45:56.487Z,11.00
2018-01-24T14:48:24.163Z,11.00
2018-01-24T14:51:02.174Z,11.00
2018-01-24T14:53:29.715Z,11.00
2018-01-24T14:56:02.540Z,11.00
2018-01-24T14:58:30.126Z,11.00
2018-01-24T15:00:57.811Z,10.90
2018-01-24T15:03:26.512Z,10.90
2018-01-24T15:05:54.143Z,10.90
2018-01-24T15:08:21.814Z,10.90
2018-01-24T15:10:49.483Z,10.90
2018-01-24T15:13:17.220Z,10.90
2018-01-24T15:15:44.828Z,10.90
2018-01-24T15:18:14.499Z,10.90
2018-01-24T15:20:42.142Z,10.90
2018-01-24T15:23:09.856Z,10.90
2018-01-24T15:25:37.490Z,10.90
2018-01-24T15:28:05.161Z,10.90
2018-01-24T15:30:32.878Z,10.90
2018-01-24T15:33:00.870Z,10.90
2018-01-24T15:35:28.571Z,10.90
2018-01-24T15:37:56.224Z,10.90
2018-01-24T15:40:23.871Z,10.90
2018-01-24T15:42:51.502Z,10.90
2018-01-24T15:45:19.253Z,10.90
2018-01-24T15:47:47.288Z,10.90
2018-01-24T15:50:14.906Z,10.90
2018-01-24T15:52:42.556Z,10.90
2018-01-24T15:55:10.251Z,10.90
2018-01-24T15:57:37.887Z,10.90
2018-01-24T16:00:05.595Z,10.90
2018-01-24T16:02:33.217Z,10.90
2018-01-24T16:05:00.898Z,10.90
2018-01-24T16:07:28.523Z,10.90
2018-01-24T16:10:02.523Z,10.90
2018-01-24T16:12:30.187Z,10.90
2018-01-24T16:14:58.128Z,10.90
2018-01-24T16:17:25.744Z,10.90
2018-01-24T16:19:53.388Z,10.90
2018-01-24T16:22:21.051Z,10.90
2018-01-24T16:24:48.762Z,10.90
2018-01-24T16:27:16.374Z,10.90
2018-01-24T16:29:44.095Z,10.90
2018-01-24T16:32:14.388Z,10.90
2018-01-24T16:34:44.462Z,10.90
2018-01-24T16:37:12.437Z,10.90
2018-01-24T16:39:39.970Z,10.90
2018-01-24T16:42:07.506Z,10.90
2018-01-24T16:44:35.123Z,10.90
2018-01-24T16:47:02.791Z,10.90
2018-01-24T16:49:30.466Z,10.90
2018-01-24T16:51:58.121Z,10.90
2018-01-24T16:54:32.197Z,10.90
2018-01-24T16:57:00.179Z,10.90
2018-01-24T16:59:27.931Z,10.90
2018-01-24T17:01:55.546Z,10.90
2018-01-24T17:04:23.180Z,10.90
2018-01-24T17:06:50.903Z,10.90
2018-01-24T17:09:20.554Z,10.90
2018-01-24T17:11:48.198Z,10.90
2018-01-24T17:14:15.865Z,10.90
2018-01-24T17:16:43.592Z,11.00
2018-01-24T17:19:11.587Z,11.00
2018-01-24T17:21:39.260Z,11.00
2018-01-24T17:24:06.901Z,11.00
2018-01-24T17:26:34.580Z,11.00
2018-01-24T17:29:02.318Z,10.90
2018-01-24T17:31:32.539Z,10.90
2018-01-24T17:34:00.606Z,10.90
2018-01-24T17:36:28.277Z,11.00
2018-01-24T17:38:55.980Z,11.00
2018-01-24T17:41:23.602Z,11.00
2018-01-24T17:43:51.292Z,11.00
2018-01-24T17:46:18.917Z,10.90
2018-01-24T17:48:46.615Z,10.90
2018-01-24T17:51:14.463Z,10.90
2018-01-24T17:53:42.171Z,10.90
2018-01-24T17:56:09.793Z,10.90
2018-01-24T17:58:37.436Z,10.90
2018-01-24T18:01:05.196Z,10.90
2018-01-24T18:03:32.792Z,10.90
2018-01-24T18:06:00.544Z,10.90
2018-01-24T18:08:28.192Z,10.90
2018-01-24T18:10:55.799Z,10.90
2018-01-24T18:13:23.889Z,10.90
2018-01-24T18:15:51.943Z,10.90
2018-01-24T18:18:19.575Z,10.90
2018-01-24T18:20:47.323Z,10.90
2018-01-24T18:23:20.670Z,10.90
2018-01-24T18:25:48.723Z,10.90
2018-01-24T18:28:16.395Z,10.90
2018-01-24T18:30:44.461Z,10.90
2018-01-24T18:33:12.155Z,10.90
2018-01-24T18:35:44.594Z,10.90
2018-01-24T18:38:12.220Z,10.90
2018-01-24T18:40:44.674Z,10.90
2018-01-24T18:43:12.426Z,10.90
2018-01-24T18:45:40.048Z,10.90
2018-01-24T18:48:07.763Z,10.90
2018-01-24T18:50:35.382Z,10.90
2018-01-24T18:53:08.605Z,10.90
2018-01-24T18:55:36.205Z,10.90
2018-01-24T18:58:03.828Z,10.90
2018-01-24T19:00:31.544Z,10.90
2018-01-24T19:02:59.235Z,10.90
2018-01-24T19:05:26.835Z,10.90
2018-01-24T19:07:54.550Z,10.90
2018-01-24T19:10:22.178Z,10.90
2018-01-24T19:12:49.907Z,10.90
2018-01-24T19:15:17.496Z,10.90
2018-01-24T19:17:45.106Z,10.90
2018-01-24T19:20:12.756Z,10.90
2018-01-24T19:22:40.357Z,10.90
2018-01-24T19:25:08.055Z,10.90
2018-01-24T19:27:38.670Z,10.90
2018-01-24T19:30:08.634Z,10.90
2018-01-24T19:32:36.219Z,10.90
2018-01-24T19:35:03.953Z,10.90
2018-01-24T19:37:31.511Z,10.90
2018-01-24T19:39:59.167Z,10.90
2018-01-24T19:42:26.860Z,10.90
2018-01-24T19:44:54.532Z,10.90
2018-01-24T19:47:22.185Z,10.90
2018-01-24T19:49:49.892Z,10.90
2018-01-24T19:52:17.945Z,10.90
2018-01-24T19:54:56.256Z,10.90
2018-01-24T19:57:32.115Z,10.90
2018-01-24T19:59:59.720Z,10.90
2018-01-24T20:02:27.391Z,10.90
2018-01-24T20:04:55.050Z,10.90
2018-01-24T20:07:22.712Z,10.90
2018-01-24T20:09:50.370Z,10.90
2018-01-24T20:12:18.075Z,10.90
2018-01-24T20:14:45.711Z,10.90
2018-01-24T20:17:13.422Z,10.90
2018-01-24T20:19:41.016Z,10.90
2018-01-24T20:22:08.701Z,10.90
2018-01-24T20:24:36.439Z,10.90
2018-01-24T20:27:04.091Z,10.90
2018-01-24T20:29:31.708Z,10.90
2018-01-24T20:31:59.317Z,10.90
2018-01-24T20:34:32.614Z,10.90
2018-01-24T20:37:00.257Z,10.90
2018-01-24T20:39:32.655Z,10.90
2018-01-24T20:42:00.242Z,10.90
2018-01-24T20:44:38.286Z,10.90
2018-01-24T20:47:08.735Z,10.90
2018-01-24T20:49:36.322Z,10.90
2018-01-24T20:52:04.037Z,10.90
2018-01-24T20:54:31.658Z,10.90
2018-01-24T20:56:59.682Z,10.90
2018-01-24T20:59:27.384Z,10.90
2018-01-24T21:01:55.058Z,10.90
2018-01-24T21:04:22.669Z,10.90
2018-01-24T21:06:50.369Z,10.90
2018-01-24T21:09:18.035Z,10.90
2018-01-24T21:11:46.031Z,10.90
2018-01-24T21:14:13.831Z,10.90
2018-01-24T21:16:41.390Z,10.90
2018-01-24T21:19:09.091Z,10.90
2018-01-24T21:21:37.115Z,10.90
2018-01-24T21:24:04.818Z,10.90
2018-01-24T21:26:38.354Z,10.90
2018-01-24T21:29:29.678Z,10.90
2018-01-24T21:32:14.484Z,10.90
2018-01-24T21:34:53.981Z,10.90
2018-01-24T21:37:26.599Z,10.90
2018-01-24T21:39:54.330Z,10.90
2018-01-24T21:42:21.943Z,10.90
2018-01-24T21:44:49.963Z,10.90
2018-01-24T21:47:17.638Z,10.90
2018-01-24T21:49:45.343Z,10.90
2018-01-24T21:52:13.358Z,10.90
2018-01-24T21:54:41.061Z,10.90
2018-01-24T21:57:09.050Z,10.90
2018-01-24T21:59:36.749Z,10.90
2018-01-24T22:02:04.412Z,10.90
2018-01-24T22:04:32.066Z,10.90
2018-01-24T22:06:59.754Z,10.90
2018-01-24T22:09:27.378Z,10.90
2018-01-24T22:11:55.092Z,10.90
2018-01-24T22:14:22.733Z,10.90
2018-01-24T22:16:50.365Z,10.90
2018-01-24T22:19:18.036Z,10.90
2018-01-24T22:21:50.595Z,10.90
2018-01-24T22:24:18.459Z,10.90
2018-01-24T22:26:50.657Z,10.90
2018-01-24T22:29:18.602Z,10.90
2018-01-24T22:31:46.179Z,10.90
2018-01-24T22:34:13.870Z,10.90
2018-01-24T22:36:41.462Z,10.90
2018-01-24T22:39:09.197Z,10.90
2018-01-24T22:41:37.171Z,10.90
2018-01-24T22:44:04.760Z,10.90
2018-01-24T22:46:32.341Z,10.90
2018-01-24T22:48:59.966Z,10.90
2018-01-24T22:51:27.630Z,10.90
2018-01-24T22:53:55.313Z,10.90
2018-01-24T22:56:23.358Z,10.90
2018-01-24T22:58:51.056Z,10.90
2018-01-24T23:01:18.661Z,10.90
2018-01-24T23:03:46.610Z,10.90
2018-01-24T23:06:14.211Z,10.90
2018-01-24T23:08:41.861Z,10.90
2018-01-24T23:11:14.703Z,10.90
2018-01-24T23:13:42.284Z,10.90
2018-01-24T23:16:09.823Z,10.90
2018-01-24T23:18:37.398Z,10.90
2018-01-24T23:21:08.561Z,10.90
2018-01-24T23:23:36.249Z,10.90
2018-01-24T23:26:03.892Z,10.90
2018-01-24T23:28:31.574Z,10.90
2018-01-24T23:30:59.198Z,10.90
2018-01-24T23:33:26.737Z,10.90
2018-01-24T23:35:54.329Z,10.90
2018-01-24T23:38:22.076Z,10.90
2018-01-24T23:40:50.083Z,10.90
2018-01-24T23:43:17.994Z,10.90
2018-01-24T23:45:46.048Z,10.90
2018-01-24T23:48:13.650Z,10.90
2018-01-24T23:50:41.342Z,10.90
2018-01-24T23:53:09.097Z,10.90
2018-01-24T23:55:36.674Z,10.90
2018-01-24T23:58:04.338Z,10.90
